sensor_id;sensor_type;location;lat;lon;timestamp;P1;durP1;ratioP1;P2;durP2;ratioP2
3407;SDS011;1717;50.240;8.406;2023-12-20T00:00:34;2.80;;;2.50;;
3407;SDS011;1717;50.240;8.406;2023-12-20T00:03:02;3.70;;;3.20;;
3407;SDS011;1717;50.240;8.406;2023-12-20T00:05:29;3.47;;;2.07;;
3407;SDS011;1717;50.240;8.406;2023-12-20T00:07:58;1.87;;;1.77;;
3407;SDS011;1717;50.240;8.406;2023-12-20T00:10:25;4.13;;;1.60;;
3407;SDS011;1717;50.240;8.406;2023-12-20T00:12:52;1.30;;;1.20;;
3407;SDS011;1717;50.240;8.406;2023-12-20T00:15:18;1.50;;;1.00;;
3407;SDS011;1717;50.240;8.406;2023-12-20T00:17:45;2.30;;;2.10;;
3407;SDS011;1717;50.240;8.406;2023-12-20T00:20:12;2.00;;;1.90;;
3407;SDS011;1717;50.240;8.406;2023-12-20T00:22:39;0.70;;;0.60;;
3407;SDS011;1717;50.240;8.406;2023-12-20T00:25:07;1.60;;;0.70;;
3407;SDS011;1717;50.240;8.406;2023-12-20T00:27:34;0.97;;;0.60;;
3407;SDS011;1717;50.240;8.406;2023-12-20T00:30:01;0.57;;;0.50;;
3407;SDS011;1717;50.240;8.406;2023-12-20T00:32:28;0.50;;;0.50;;
3407;SDS011;1717;50.240;8.406;2023-12-20T00:34:55;0.70;;;0.70;;
3407;SDS011;1717;50.240;8.406;2023-12-20T00:37:22;1.00;;;0.80;;
3407;SDS011;1717;50.240;8.406;2023-12-20T00:39:49;0.60;;;0.53;;
3407;SDS011;1717;50.240;8.406;2023-12-20T00:42:17;2.23;;;1.50;;
3407;SDS011;1717;50.240;8.406;2023-12-20T00:44:43;0.73;;;0.73;;
3407;SDS011;1717;50.240;8.406;2023-12-20T00:47:10;0.97;;;0.87;;
3407;SDS011;1717;50.240;8.406;2023-12-20T00:49:38;0.43;;;0.40;;
3407;SDS011;1717;50.240;8.406;2023-12-20T00:52:05;1.70;;;0.60;;
3407;SDS011;1717;50.240;8.406;2023-12-20T00:54:32;1.50;;;0.43;;
3407;SDS011;1717;50.240;8.406;2023-12-20T00:56:59;0.80;;;0.40;;
3407;SDS011;1717;50.240;8.406;2023-12-20T00:59:27;0.77;;;0.60;;
3407;SDS011;1717;50.240;8.406;2023-12-20T01:01:54;0.90;;;0.77;;
3407;SDS011;1717;50.240;8.406;2023-12-20T01:04:20;0.50;;;0.40;;
3407;SDS011;1717;50.240;8.406;2023-12-20T01:06:47;0.70;;;0.63;;
3407;SDS011;1717;50.240;8.406;2023-12-20T01:09:14;2.03;;;0.70;;
3407;SDS011;1717;50.240;8.406;2023-12-20T01:11:41;0.67;;;0.60;;
3407;SDS011;1717;50.240;8.406;2023-12-20T01:14:08;0.93;;;0.70;;
3407;SDS011;1717;50.240;8.406;2023-12-20T01:16:36;0.70;;;0.70;;
3407;SDS011;1717;50.240;8.406;2023-12-20T01:19:02;0.53;;;0.53;;
3407;SDS011;1717;50.240;8.406;2023-12-20T01:21:29;0.60;;;0.60;;
3407;SDS011;1717;50.240;8.406;2023-12-20T01:23:56;0.80;;;0.70;;
3407;SDS011;1717;50.240;8.406;2023-12-20T01:26:23;0.63;;;0.63;;
3407;SDS011;1717;50.240;8.406;2023-12-20T01:28:50;1.13;;;1.03;;
3407;SDS011;1717;50.240;8.406;2023-12-20T01:31:16;0.80;;;0.73;;
3407;SDS011;1717;50.240;8.406;2023-12-20T01:33:45;0.60;;;0.60;;
3407;SDS011;1717;50.240;8.406;2023-12-20T01:36:12;1.00;;;0.90;;
3407;SDS011;1717;50.240;8.406;2023-12-20T01:38:38;0.80;;;0.70;;
3407;SDS011;1717;50.240;8.406;2023-12-20T01:41:06;1.53;;;0.70;;
3407;SDS011;1717;50.240;8.406;2023-12-20T01:43:33;0.57;;;0.50;;
3407;SDS011;1717;50.240;8.406;2023-12-20T01:46:00;0.73;;;0.70;;
3407;SDS011;1717;50.240;8.406;2023-12-20T01:48:28;3.70;;;0.80;;
3407;SDS011;1717;50.240;8.406;2023-12-20T01:50:58;0.63;;;0.63;;
3407;SDS011;1717;50.240;8.406;2023-12-20T01:53:26;1.20;;;0.73;;
3407;SDS011;1717;50.240;8.406;2023-12-20T01:55:54;3.37;;;1.00;;
3407;SDS011;1717;50.240;8.406;2023-12-20T01:58:22;0.97;;;0.83;;
3407;SDS011;1717;50.240;8.406;2023-12-20T02:00:49;1.10;;;1.00;;
3407;SDS011;1717;50.240;8.406;2023-12-20T02:03:17;0.77;;;0.77;;
3407;SDS011;1717;50.240;8.406;2023-12-20T02:05:44;1.83;;;0.80;;
3407;SDS011;1717;50.240;8.406;2023-12-20T02:08:14;0.80;;;0.80;;
3407;SDS011;1717;50.240;8.406;2023-12-20T02:10:41;0.90;;;0.90;;
3407;SDS011;1717;50.240;8.406;2023-12-20T02:13:08;1.17;;;1.07;;
3407;SDS011;1717;50.240;8.406;2023-12-20T02:15:34;1.20;;;1.10;;
3407;SDS011;1717;50.240;8.406;2023-12-20T02:18:02;0.87;;;0.80;;
3407;SDS011;1717;50.240;8.406;2023-12-20T02:20:29;1.10;;;1.00;;
3407;SDS011;1717;50.240;8.406;2023-12-20T02:22:57;1.23;;;1.17;;
3407;SDS011;1717;50.240;8.406;2023-12-20T02:25:24;1.60;;;1.00;;
3407;SDS011;1717;50.240;8.406;2023-12-20T02:27:51;1.00;;;1.00;;
3407;SDS011;1717;50.240;8.406;2023-12-20T02:30:18;0.73;;;0.73;;
3407;SDS011;1717;50.240;8.406;2023-12-20T02:32:46;1.00;;;0.90;;
3407;SDS011;1717;50.240;8.406;2023-12-20T02:35:14;1.20;;;1.20;;
3407;SDS011;1717;50.240;8.406;2023-12-20T02:37:41;0.90;;;0.90;;
3407;SDS011;1717;50.240;8.406;2023-12-20T02:40:09;1.10;;;1.00;;
3407;SDS011;1717;50.240;8.406;2023-12-20T02:42:36;1.77;;;1.67;;
3407;SDS011;1717;50.240;8.406;2023-12-20T02:45:03;1.10;;;1.10;;
3407;SDS011;1717;50.240;8.406;2023-12-20T02:47:31;1.20;;;1.10;;
3407;SDS011;1717;50.240;8.406;2023-12-20T02:49:57;2.57;;;1.60;;
3407;SDS011;1717;50.240;8.406;2023-12-20T02:52:24;1.27;;;1.20;;
3407;SDS011;1717;50.240;8.406;2023-12-20T02:54:52;1.67;;;1.57;;
3407;SDS011;1717;50.240;8.406;2023-12-20T02:57:20;2.20;;;2.10;;
3407;SDS011;1717;50.240;8.406;2023-12-20T02:59:46;1.40;;;1.30;;
3407;SDS011;1717;50.240;8.406;2023-12-20T03:02:13;1.83;;;1.73;;
3407;SDS011;1717;50.240;8.406;2023-12-20T03:04:40;2.57;;;1.50;;
3407;SDS011;1717;50.240;8.406;2023-12-20T03:07:07;1.20;;;1.10;;
3407;SDS011;1717;50.240;8.406;2023-12-20T03:09:34;3.70;;;1.77;;
3407;SDS011;1717;50.240;8.406;2023-12-20T03:12:00;1.40;;;1.30;;
3407;SDS011;1717;50.240;8.406;2023-12-20T03:14:29;1.97;;;1.40;;
3407;SDS011;1717;50.240;8.406;2023-12-20T03:16:55;1.57;;;1.30;;
3407;SDS011;1717;50.240;8.406;2023-12-20T03:19:22;0.90;;;0.90;;
3407;SDS011;1717;50.240;8.406;2023-12-20T03:21:49;3.43;;;1.47;;
3407;SDS011;1717;50.240;8.406;2023-12-20T03:24:18;1.53;;;1.43;;
3407;SDS011;1717;50.240;8.406;2023-12-20T03:26:44;1.23;;;1.13;;
3407;SDS011;1717;50.240;8.406;2023-12-20T03:29:11;1.50;;;1.40;;
3407;SDS011;1717;50.240;8.406;2023-12-20T03:31:39;5.33;;;1.77;;
3407;SDS011;1717;50.240;8.406;2023-12-20T03:34:06;1.63;;;1.53;;
3407;SDS011;1717;50.240;8.406;2023-12-20T03:36:33;1.30;;;1.20;;
3407;SDS011;1717;50.240;8.406;2023-12-20T03:39:00;1.30;;;1.20;;
3407;SDS011;1717;50.240;8.406;2023-12-20T03:41:26;1.70;;;1.60;;
3407;SDS011;1717;50.240;8.406;2023-12-20T03:43:53;6.23;;;1.50;;
3407;SDS011;1717;50.240;8.406;2023-12-20T03:46:20;1.40;;;1.30;;
3407;SDS011;1717;50.240;8.406;2023-12-20T03:48:50;1.00;;;1.00;;
3407;SDS011;1717;50.240;8.406;2023-12-20T03:51:17;1.47;;;1.37;;
3407;SDS011;1717;50.240;8.406;2023-12-20T03:53:43;1.90;;;1.20;;
3407;SDS011;1717;50.240;8.406;2023-12-20T03:56:10;1.67;;;1.57;;
3407;SDS011;1717;50.240;8.406;2023-12-20T03:58:37;1.83;;;1.73;;
3407;SDS011;1717;50.240;8.406;2023-12-20T04:01:08;2.27;;;2.07;;
3407;SDS011;1717;50.240;8.406;2023-12-20T04:03:36;2.07;;;1.93;;
3407;SDS011;1717;50.240;8.406;2023-12-20T04:06:05;3.03;;;2.13;;
3407;SDS011;1717;50.240;8.406;2023-12-20T04:08:32;2.37;;;2.13;;
3407;SDS011;1717;50.240;8.406;2023-12-20T04:10:58;3.33;;;2.80;;
3407;SDS011;1717;50.240;8.406;2023-12-20T04:13:25;2.97;;;2.67;;
3407;SDS011;1717;50.240;8.406;2023-12-20T04:15:52;3.83;;;3.30;;
3407;SDS011;1717;50.240;8.406;2023-12-20T04:18:19;4.73;;;3.20;;
3407;SDS011;1717;50.240;8.406;2023-12-20T04:20:45;5.70;;;3.90;;
3407;SDS011;1717;50.240;8.406;2023-12-20T04:23:14;4.67;;;3.50;;
3407;SDS011;1717;50.240;8.406;2023-12-20T04:25:40;4.47;;;4.07;;
3407;SDS011;1717;50.240;8.406;2023-12-20T04:28:07;5.87;;;4.10;;
3407;SDS011;1717;50.240;8.406;2023-12-20T04:30:34;10.93;;;4.17;;
3407;SDS011;1717;50.240;8.406;2023-12-20T04:33:01;6.47;;;4.63;;
3407;SDS011;1717;50.240;8.406;2023-12-20T04:35:28;7.13;;;4.23;;
3407;SDS011;1717;50.240;8.406;2023-12-20T04:37:55;6.90;;;5.07;;
3407;SDS011;1717;50.240;8.406;2023-12-20T04:40:23;8.53;;;4.17;;
3407;SDS011;1717;50.240;8.406;2023-12-20T04:42:49;13.17;;;5.23;;
3407;SDS011;1717;50.240;8.406;2023-12-20T04:45:16;6.77;;;3.67;;
3407;SDS011;1717;50.240;8.406;2023-12-20T04:47:44;5.47;;;3.80;;
3407;SDS011;1717;50.240;8.406;2023-12-20T04:50:12;5.73;;;4.30;;
3407;SDS011;1717;50.240;8.406;2023-12-20T04:52:39;9.23;;;4.30;;
3407;SDS011;1717;50.240;8.406;2023-12-20T04:55:06;4.30;;;3.07;;
3407;SDS011;1717;50.240;8.406;2023-12-20T04:57:35;9.97;;;4.93;;
3407;SDS011;1717;50.240;8.406;2023-12-20T05:00:01;5.37;;;3.20;;
3407;SDS011;1717;50.240;8.406;2023-12-20T05:02:29;8.80;;;3.27;;
3407;SDS011;1717;50.240;8.406;2023-12-20T05:04:56;5.53;;;3.80;;
3407;SDS011;1717;50.240;8.406;2023-12-20T05:07:23;5.10;;;2.13;;
3407;SDS011;1717;50.240;8.406;2023-12-20T05:09:50;4.80;;;2.30;;
3407;SDS011;1717;50.240;8.406;2023-12-20T05:12:17;8.23;;;2.70;;
3407;SDS011;1717;50.240;8.406;2023-12-20T05:14:45;2.80;;;2.10;;
3407;SDS011;1717;50.240;8.406;2023-12-20T05:17:12;8.23;;;2.40;;
3407;SDS011;1717;50.240;8.406;2023-12-20T05:19:39;4.63;;;2.63;;
3407;SDS011;1717;50.240;8.406;2023-12-20T05:22:06;8.53;;;3.27;;
3407;SDS011;1717;50.240;8.406;2023-12-20T05:24:33;4.03;;;2.53;;
3407;SDS011;1717;50.240;8.406;2023-12-20T05:27:00;12.27;;;3.57;;
3407;SDS011;1717;50.240;8.406;2023-12-20T05:29:26;5.27;;;3.23;;
3407;SDS011;1717;50.240;8.406;2023-12-20T05:31:54;9.97;;;3.10;;
3407;SDS011;1717;50.240;8.406;2023-12-20T05:34:21;7.33;;;2.70;;
3407;SDS011;1717;50.240;8.406;2023-12-20T05:36:48;8.27;;;2.60;;
3407;SDS011;1717;50.240;8.406;2023-12-20T05:39:15;2.20;;;1.80;;
3407;SDS011;1717;50.240;8.406;2023-12-20T05:41:41;4.97;;;1.97;;
3407;SDS011;1717;50.240;8.406;2023-12-20T05:44:08;8.00;;;2.13;;
3407;SDS011;1717;50.240;8.406;2023-12-20T05:46:35;6.90;;;2.93;;
3407;SDS011;1717;50.240;8.406;2023-12-20T05:49:03;11.90;;;2.77;;
3407;SDS011;1717;50.240;8.406;2023-12-20T05:51:30;4.93;;;1.70;;
3407;SDS011;1717;50.240;8.406;2023-12-20T05:53:57;4.77;;;2.00;;
3407;SDS011;1717;50.240;8.406;2023-12-20T05:56:24;6.13;;;1.90;;
3407;SDS011;1717;50.240;8.406;2023-12-20T05:58:51;3.93;;;1.77;;
3407;SDS011;1717;50.240;8.406;2023-12-20T06:01:18;4.80;;;2.13;;
3407;SDS011;1717;50.240;8.406;2023-12-20T06:03:44;17.20;;;2.53;;
3407;SDS011;1717;50.240;8.406;2023-12-20T06:06:13;7.00;;;2.50;;
3407;SDS011;1717;50.240;8.406;2023-12-20T06:08:40;6.23;;;1.80;;
3407;SDS011;1717;50.240;8.406;2023-12-20T06:11:08;6.97;;;2.20;;
3407;SDS011;1717;50.240;8.406;2023-12-20T06:13:35;6.20;;;2.40;;
3407;SDS011;1717;50.240;8.406;2023-12-20T06:16:02;9.30;;;2.40;;
3407;SDS011;1717;50.240;8.406;2023-12-20T06:18:31;11.57;;;3.30;;
3407;SDS011;1717;50.240;8.406;2023-12-20T06:20:58;5.53;;;2.10;;
3407;SDS011;1717;50.240;8.406;2023-12-20T06:23:26;4.67;;;1.87;;
3407;SDS011;1717;50.240;8.406;2023-12-20T06:25:53;5.57;;;3.50;;
3407;SDS011;1717;50.240;8.406;2023-12-20T06:28:19;4.53;;;2.40;;
3407;SDS011;1717;50.240;8.406;2023-12-20T06:30:46;11.13;;;2.57;;
3407;SDS011;1717;50.240;8.406;2023-12-20T06:33:14;10.00;;;3.10;;
3407;SDS011;1717;50.240;8.406;2023-12-20T06:35:43;8.00;;;1.77;;
3407;SDS011;1717;50.240;8.406;2023-12-20T06:38:10;8.10;;;2.67;;
3407;SDS011;1717;50.240;8.406;2023-12-20T06:40:38;6.63;;;2.40;;
3407;SDS011;1717;50.240;8.406;2023-12-20T06:43:05;3.47;;;2.17;;
3407;SDS011;1717;50.240;8.406;2023-12-20T06:45:32;3.37;;;2.27;;
3407;SDS011;1717;50.240;8.406;2023-12-20T06:47:59;5.43;;;1.97;;
3407;SDS011;1717;50.240;8.406;2023-12-20T06:50:26;10.80;;;2.53;;
3407;SDS011;1717;50.240;8.406;2023-12-20T06:52:53;3.13;;;2.20;;
3407;SDS011;1717;50.240;8.406;2023-12-20T06:55:20;7.60;;;2.07;;
3407;SDS011;1717;50.240;8.406;2023-12-20T06:57:48;2.93;;;2.10;;
3407;SDS011;1717;50.240;8.406;2023-12-20T07:00:15;5.13;;;2.27;;
3407;SDS011;1717;50.240;8.406;2023-12-20T07:02:45;6.63;;;2.60;;
3407;SDS011;1717;50.240;8.406;2023-12-20T07:05:12;5.47;;;2.37;;
3407;SDS011;1717;50.240;8.406;2023-12-20T07:07:42;4.30;;;2.20;;
3407;SDS011;1717;50.240;8.406;2023-12-20T07:10:09;2.43;;;1.73;;
3407;SDS011;1717;50.240;8.406;2023-12-20T07:12:35;4.13;;;2.43;;
3407;SDS011;1717;50.240;8.406;2023-12-20T07:15:04;4.27;;;2.10;;
3407;SDS011;1717;50.240;8.406;2023-12-20T07:17:32;3.70;;;2.43;;
3407;SDS011;1717;50.240;8.406;2023-12-20T07:19:59;5.47;;;2.87;;
3407;SDS011;1717;50.240;8.406;2023-12-20T07:22:28;3.20;;;2.10;;
3407;SDS011;1717;50.240;8.406;2023-12-20T07:24:56;5.17;;;2.30;;
3407;SDS011;1717;50.240;8.406;2023-12-20T07:27:23;9.87;;;2.13;;
3407;SDS011;1717;50.240;8.406;2023-12-20T07:29:50;8.43;;;2.60;;
3407;SDS011;1717;50.240;8.406;2023-12-20T07:32:19;7.37;;;2.90;;
3407;SDS011;1717;50.240;8.406;2023-12-20T07:34:46;7.67;;;2.30;;
3407;SDS011;1717;50.240;8.406;2023-12-20T07:37:12;3.60;;;1.93;;
3407;SDS011;1717;50.240;8.406;2023-12-20T07:39:39;12.40;;;2.47;;
3407;SDS011;1717;50.240;8.406;2023-12-20T07:42:06;7.83;;;2.03;;
3407;SDS011;1717;50.240;8.406;2023-12-20T07:44:33;4.37;;;2.30;;
3407;SDS011;1717;50.240;8.406;2023-12-20T07:47:01;6.10;;;1.90;;
3407;SDS011;1717;50.240;8.406;2023-12-20T07:49:30;5.33;;;1.60;;
3407;SDS011;1717;50.240;8.406;2023-12-20T07:51:56;4.80;;;2.13;;
3407;SDS011;1717;50.240;8.406;2023-12-20T07:54:23;7.10;;;2.53;;
3407;SDS011;1717;50.240;8.406;2023-12-20T07:56:50;4.83;;;2.77;;
3407;SDS011;1717;50.240;8.406;2023-12-20T07:59:17;4.47;;;1.83;;
3407;SDS011;1717;50.240;8.406;2023-12-20T08:01:44;10.17;;;2.10;;
3407;SDS011;1717;50.240;8.406;2023-12-20T08:04:11;3.70;;;2.20;;
3407;SDS011;1717;50.240;8.406;2023-12-20T08:06:39;9.83;;;2.60;;
3407;SDS011;1717;50.240;8.406;2023-12-20T08:09:06;5.47;;;2.20;;
3407;SDS011;1717;50.240;8.406;2023-12-20T08:11:33;7.27;;;2.17;;
3407;SDS011;1717;50.240;8.406;2023-12-20T08:14:00;4.03;;;2.20;;
3407;SDS011;1717;50.240;8.406;2023-12-20T08:16:26;13.73;;;2.77;;
3407;SDS011;1717;50.240;8.406;2023-12-20T08:18:53;7.40;;;2.13;;
3407;SDS011;1717;50.240;8.406;2023-12-20T08:21:20;5.80;;;1.80;;
3407;SDS011;1717;50.240;8.406;2023-12-20T08:23:49;6.17;;;2.20;;
3407;SDS011;1717;50.240;8.406;2023-12-20T08:26:18;5.80;;;2.70;;
3407;SDS011;1717;50.240;8.406;2023-12-20T08:28:47;12.73;;;2.40;;
3407;SDS011;1717;50.240;8.406;2023-12-20T08:31:15;8.37;;;2.37;;
3407;SDS011;1717;50.240;8.406;2023-12-20T08:33:43;5.70;;;2.07;;
3407;SDS011;1717;50.240;8.406;2023-12-20T08:36:10;7.97;;;2.70;;
3407;SDS011;1717;50.240;8.406;2023-12-20T08:38:37;10.17;;;3.33;;
3407;SDS011;1717;50.240;8.406;2023-12-20T08:41:06;8.33;;;2.10;;
3407;SDS011;1717;50.240;8.406;2023-12-20T08:43:33;6.03;;;2.70;;
3407;SDS011;1717;50.240;8.406;2023-12-20T08:46:01;3.70;;;2.10;;
3407;SDS011;1717;50.240;8.406;2023-12-20T08:48:28;5.50;;;2.53;;
3407;SDS011;1717;50.240;8.406;2023-12-20T08:50:54;10.60;;;2.30;;
3407;SDS011;1717;50.240;8.406;2023-12-20T08:53:21;7.77;;;3.10;;
3407;SDS011;1717;50.240;8.406;2023-12-20T08:55:47;9.33;;;2.30;;
3407;SDS011;1717;50.240;8.406;2023-12-20T08:58:16;8.33;;;2.20;;
3407;SDS011;1717;50.240;8.406;2023-12-20T09:00:43;6.60;;;2.40;;
3407;SDS011;1717;50.240;8.406;2023-12-20T09:03:09;10.63;;;2.40;;
3407;SDS011;1717;50.240;8.406;2023-12-20T09:05:36;10.60;;;2.53;;
3407;SDS011;1717;50.240;8.406;2023-12-20T09:08:03;10.30;;;2.80;;
3407;SDS011;1717;50.240;8.406;2023-12-20T09:10:32;5.20;;;2.40;;
3407;SDS011;1717;50.240;8.406;2023-12-20T09:12:59;8.33;;;3.10;;
3407;SDS011;1717;50.240;8.406;2023-12-20T09:15:28;6.60;;;2.40;;
3407;SDS011;1717;50.240;8.406;2023-12-20T09:17:55;7.13;;;2.47;;
3407;SDS011;1717;50.240;8.406;2023-12-20T09:20:22;8.33;;;2.40;;
3407;SDS011;1717;50.240;8.406;2023-12-20T09:22:49;4.00;;;2.40;;
3407;SDS011;1717;50.240;8.406;2023-12-20T09:25:16;4.30;;;2.57;;
3407;SDS011;1717;50.240;8.406;2023-12-20T09:27:43;14.63;;;5.13;;
3407;SDS011;1717;50.240;8.406;2023-12-20T09:30:10;9.90;;;4.87;;
3407;SDS011;1717;50.240;8.406;2023-12-20T09:32:39;9.50;;;3.93;;
3407;SDS011;1717;50.240;8.406;2023-12-20T09:35:06;4.23;;;3.90;;
3407;SDS011;1717;50.240;8.406;2023-12-20T09:37:34;7.10;;;3.50;;
3407;SDS011;1717;50.240;8.406;2023-12-20T09:40:01;9.70;;;2.83;;
3407;SDS011;1717;50.240;8.406;2023-12-20T09:42:30;5.07;;;3.60;;
3407;SDS011;1717;50.240;8.406;2023-12-20T09:45:05;10.17;;;4.47;;
3407;SDS011;1717;50.240;8.406;2023-12-20T09:47:35;8.10;;;3.40;;
3407;SDS011;1717;50.240;8.406;2023-12-20T09:50:04;8.10;;;4.17;;
3407;SDS011;1717;50.240;8.406;2023-12-20T09:52:32;8.10;;;3.60;;
3407;SDS011;1717;50.240;8.406;2023-12-20T09:55:00;5.80;;;3.90;;
3407;SDS011;1717;50.240;8.406;2023-12-20T09:57:30;7.30;;;2.83;;
3407;SDS011;1717;50.240;8.406;2023-12-20T09:59:57;8.63;;;3.87;;
3407;SDS011;1717;50.240;8.406;2023-12-20T10:02:25;5.70;;;3.17;;
3407;SDS011;1717;50.240;8.406;2023-12-20T10:04:52;14.50;;;6.30;;
3407;SDS011;1717;50.240;8.406;2023-12-20T10:07:22;13.07;;;6.63;;
3407;SDS011;1717;50.240;8.406;2023-12-20T10:09:49;12.43;;;5.40;;
3407;SDS011;1717;50.240;8.406;2023-12-20T10:12:20;13.63;;;6.17;;
3407;SDS011;1717;50.240;8.406;2023-12-20T10:14:47;12.10;;;3.60;;
3407;SDS011;1717;50.240;8.406;2023-12-20T10:17:14;7.43;;;3.23;;
3407;SDS011;1717;50.240;8.406;2023-12-20T10:19:42;11.23;;;3.80;;
3407;SDS011;1717;50.240;8.406;2023-12-20T10:22:09;12.43;;;4.20;;
3407;SDS011;1717;50.240;8.406;2023-12-20T10:24:39;4.90;;;3.33;;
3407;SDS011;1717;50.240;8.406;2023-12-20T10:27:07;7.67;;;3.23;;
3407;SDS011;1717;50.240;8.406;2023-12-20T10:29:35;9.67;;;4.70;;
3407;SDS011;1717;50.240;8.406;2023-12-20T10:34:48;6.60;;;3.17;;
3407;SDS011;1717;50.240;8.406;2023-12-20T10:37:16;7.00;;;4.40;;
3407;SDS011;1717;50.240;8.406;2023-12-20T10:39:44;8.43;;;3.73;;
3407;SDS011;1717;50.240;8.406;2023-12-20T10:42:16;7.50;;;3.50;;
3407;SDS011;1717;50.240;8.406;2023-12-20T10:44:44;11.27;;;3.60;;
3407;SDS011;1717;50.240;8.406;2023-12-20T10:47:11;4.80;;;2.77;;
3407;SDS011;1717;50.240;8.406;2023-12-20T10:49:39;9.87;;;3.20;;
3407;SDS011;1717;50.240;8.406;2023-12-20T10:52:07;7.40;;;3.53;;
3407;SDS011;1717;50.240;8.406;2023-12-20T10:54:37;4.30;;;3.03;;
3407;SDS011;1717;50.240;8.406;2023-12-20T10:57:06;6.53;;;3.50;;
3407;SDS011;1717;50.240;8.406;2023-12-20T10:59:33;3.70;;;3.30;;
3407;SDS011;1717;50.240;8.406;2023-12-20T11:02:03;5.60;;;3.50;;
3407;SDS011;1717;50.240;8.406;2023-12-20T11:04:35;10.70;;;3.43;;
3407;SDS011;1717;50.240;8.406;2023-12-20T11:07:10;11.03;;;3.00;;
3407;SDS011;1717;50.240;8.406;2023-12-20T11:09:47;7.57;;;2.10;;
3407;SDS011;1717;50.240;8.406;2023-12-20T11:12:22;4.83;;;2.10;;
3407;SDS011;1717;50.240;8.406;2023-12-20T11:14:55;9.27;;;2.60;;
3407;SDS011;1717;50.240;8.406;2023-12-20T11:17:25;8.70;;;3.60;;
3407;SDS011;1717;50.240;8.406;2023-12-20T11:20:09;11.00;;;3.70;;
3407;SDS011;1717;50.240;8.406;2023-12-20T11:22:37;7.47;;;2.63;;
3407;SDS011;1717;50.240;8.406;2023-12-20T11:25:07;8.23;;;3.47;;
3407;SDS011;1717;50.240;8.406;2023-12-20T11:27:36;7.53;;;3.43;;
3407;SDS011;1717;50.240;8.406;2023-12-20T11:30:08;3.83;;;2.40;;
3407;SDS011;1717;50.240;8.406;2023-12-20T11:32:35;7.60;;;2.87;;
3407;SDS011;1717;50.240;8.406;2023-12-20T11:35:16;11.20;;;2.77;;
3407;SDS011;1717;50.240;8.406;2023-12-20T11:37:45;6.37;;;2.70;;
3407;SDS011;1717;50.240;8.406;2023-12-20T11:40:13;6.17;;;2.57;;
3407;SDS011;1717;50.240;8.406;2023-12-20T11:42:43;4.27;;;2.70;;
3407;SDS011;1717;50.240;8.406;2023-12-20T11:45:11;7.10;;;2.47;;
3407;SDS011;1717;50.240;8.406;2023-12-20T11:47:41;2.57;;;2.00;;
3407;SDS011;1717;50.240;8.406;2023-12-20T11:50:09;6.13;;;2.50;;
3407;SDS011;1717;50.240;8.406;2023-12-20T11:52:36;12.67;;;3.07;;
3407;SDS011;1717;50.240;8.406;2023-12-20T11:55:03;6.77;;;3.00;;
3407;SDS011;1717;50.240;8.406;2023-12-20T11:57:30;6.03;;;2.33;;
3407;SDS011;1717;50.240;8.406;2023-12-20T11:59:58;5.90;;;2.47;;
3407;SDS011;1717;50.240;8.406;2023-12-20T12:02:26;4.53;;;2.10;;
3407;SDS011;1717;50.240;8.406;2023-12-20T12:04:52;9.23;;;2.77;;
3407;SDS011;1717;50.240;8.406;2023-12-20T12:07:20;9.37;;;2.60;;
3407;SDS011;1717;50.240;8.406;2023-12-20T12:09:47;9.10;;;2.47;;
3407;SDS011;1717;50.240;8.406;2023-12-20T12:12:14;9.83;;;2.77;;
3407;SDS011;1717;50.240;8.406;2023-12-20T12:14:41;7.47;;;3.10;;
3407;SDS011;1717;50.240;8.406;2023-12-20T12:17:13;6.33;;;2.23;;
3407;SDS011;1717;50.240;8.406;2023-12-20T12:19:40;8.00;;;2.57;;
3407;SDS011;1717;50.240;8.406;2023-12-20T12:22:08;4.63;;;2.60;;
3407;SDS011;1717;50.240;8.406;2023-12-20T12:24:38;8.77;;;3.23;;
3407;SDS011;1717;50.240;8.406;2023-12-20T12:27:05;7.70;;;3.33;;
3407;SDS011;1717;50.240;8.406;2023-12-20T12:29:33;9.17;;;3.00;;
3407;SDS011;1717;50.240;8.406;2023-12-20T12:32:00;7.80;;;3.63;;
3407;SDS011;1717;50.240;8.406;2023-12-20T12:34:29;6.30;;;3.37;;
3407;SDS011;1717;50.240;8.406;2023-12-20T12:36:56;11.57;;;3.40;;
3407;SDS011;1717;50.240;8.406;2023-12-20T12:39:23;5.90;;;2.17;;
3407;SDS011;1717;50.240;8.406;2023-12-20T12:41:51;6.40;;;2.53;;
3407;SDS011;1717;50.240;8.406;2023-12-20T12:44:18;5.60;;;1.57;;
3407;SDS011;1717;50.240;8.406;2023-12-20T12:46:44;3.60;;;2.00;;
3407;SDS011;1717;50.240;8.406;2023-12-20T12:49:12;7.20;;;2.50;;
3407;SDS011;1717;50.240;8.406;2023-12-20T12:51:40;10.60;;;3.70;;
3407;SDS011;1717;50.240;8.406;2023-12-20T12:54:08;3.13;;;2.80;;
3407;SDS011;1717;50.240;8.406;2023-12-20T12:56:35;10.50;;;3.63;;
3407;SDS011;1717;50.240;8.406;2023-12-20T12:59:02;6.00;;;2.40;;
3407;SDS011;1717;50.240;8.406;2023-12-20T13:01:30;5.47;;;2.17;;
3407;SDS011;1717;50.240;8.406;2023-12-20T13:03:57;5.57;;;2.57;;
3407;SDS011;1717;50.240;8.406;2023-12-20T13:06:26;7.80;;;2.13;;
3407;SDS011;1717;50.240;8.406;2023-12-20T13:08:54;5.90;;;2.83;;
3407;SDS011;1717;50.240;8.406;2023-12-20T13:11:21;9.43;;;3.47;;
3407;SDS011;1717;50.240;8.406;2023-12-20T13:13:48;4.80;;;2.57;;
3407;SDS011;1717;50.240;8.406;2023-12-20T13:16:15;5.43;;;2.93;;
3407;SDS011;1717;50.240;8.406;2023-12-20T13:18:43;5.87;;;2.97;;
3407;SDS011;1717;50.240;8.406;2023-12-20T13:21:09;6.57;;;3.73;;
3407;SDS011;1717;50.240;8.406;2023-12-20T13:23:36;4.87;;;2.73;;
3407;SDS011;1717;50.240;8.406;2023-12-20T13:26:04;7.63;;;3.07;;
3407;SDS011;1717;50.240;8.406;2023-12-20T13:28:32;3.40;;;2.50;;
3407;SDS011;1717;50.240;8.406;2023-12-20T13:30:59;5.77;;;3.27;;
3407;SDS011;1717;50.240;8.406;2023-12-20T13:33:26;5.87;;;2.70;;
3407;SDS011;1717;50.240;8.406;2023-12-20T13:35:53;7.70;;;2.93;;
3407;SDS011;1717;50.240;8.406;2023-12-20T13:38:21;5.33;;;2.70;;
3407;SDS011;1717;50.240;8.406;2023-12-20T13:40:48;12.70;;;4.80;;
3407;SDS011;1717;50.240;8.406;2023-12-20T13:43:16;6.23;;;3.10;;
3407;SDS011;1717;50.240;8.406;2023-12-20T13:45:46;11.80;;;3.37;;
3407;SDS011;1717;50.240;8.406;2023-12-20T13:48:13;4.20;;;2.80;;
3407;SDS011;1717;50.240;8.406;2023-12-20T13:50:40;11.60;;;3.10;;
3407;SDS011;1717;50.240;8.406;2023-12-20T13:53:07;5.40;;;3.00;;
3407;SDS011;1717;50.240;8.406;2023-12-20T13:55:34;4.10;;;2.83;;
3407;SDS011;1717;50.240;8.406;2023-12-20T13:58:01;5.90;;;2.73;;
3407;SDS011;1717;50.240;8.406;2023-12-20T14:00:30;6.07;;;3.37;;
3407;SDS011;1717;50.240;8.406;2023-12-20T14:02:57;6.70;;;3.63;;
3407;SDS011;1717;50.240;8.406;2023-12-20T14:05:24;9.27;;;3.30;;
3407;SDS011;1717;50.240;8.406;2023-12-20T14:07:51;13.97;;;4.10;;
3407;SDS011;1717;50.240;8.406;2023-12-20T14:10:18;5.60;;;2.80;;
3407;SDS011;1717;50.240;8.406;2023-12-20T14:12:45;6.47;;;2.20;;
3407;SDS011;1717;50.240;8.406;2023-12-20T14:15:12;5.73;;;2.53;;
3407;SDS011;1717;50.240;8.406;2023-12-20T14:17:41;6.60;;;3.00;;
3407;SDS011;1717;50.240;8.406;2023-12-20T14:20:08;6.23;;;3.13;;
3407;SDS011;1717;50.240;8.406;2023-12-20T14:22:37;10.50;;;3.50;;
3407;SDS011;1717;50.240;8.406;2023-12-20T14:25:10;6.60;;;3.60;;
3407;SDS011;1717;50.240;8.406;2023-12-20T14:27:37;6.40;;;3.13;;
3407;SDS011;1717;50.240;8.406;2023-12-20T14:30:04;9.17;;;2.73;;
3407;SDS011;1717;50.240;8.406;2023-12-20T14:32:34;7.30;;;2.37;;
3407;SDS011;1717;50.240;8.406;2023-12-20T14:35:03;6.07;;;2.13;;
3407;SDS011;1717;50.240;8.406;2023-12-20T14:37:31;4.10;;;2.53;;
3407;SDS011;1717;50.240;8.406;2023-12-20T14:39:58;6.03;;;2.13;;
3407;SDS011;1717;50.240;8.406;2023-12-20T14:42:25;4.30;;;2.17;;
3407;SDS011;1717;50.240;8.406;2023-12-20T14:44:52;6.90;;;2.97;;
3407;SDS011;1717;50.240;8.406;2023-12-20T14:47:19;4.67;;;2.17;;
3407;SDS011;1717;50.240;8.406;2023-12-20T14:49:46;3.33;;;2.17;;
3407;SDS011;1717;50.240;8.406;2023-12-20T14:52:15;6.53;;;2.10;;
3407;SDS011;1717;50.240;8.406;2023-12-20T14:54:44;5.40;;;2.10;;
3407;SDS011;1717;50.240;8.406;2023-12-20T14:57:11;2.20;;;1.80;;
3407;SDS011;1717;50.240;8.406;2023-12-20T14:59:38;2.67;;;2.03;;
3407;SDS011;1717;50.240;8.406;2023-12-20T15:02:05;4.70;;;2.10;;
3407;SDS011;1717;50.240;8.406;2023-12-20T15:04:32;6.20;;;2.17;;
3407;SDS011;1717;50.240;8.406;2023-12-20T15:06:59;7.00;;;1.90;;
3407;SDS011;1717;50.240;8.406;2023-12-20T15:09:28;9.07;;;2.60;;
3407;SDS011;1717;50.240;8.406;2023-12-20T15:11:55;3.30;;;1.70;;
3407;SDS011;1717;50.240;8.406;2023-12-20T15:14:22;5.23;;;2.00;;
3407;SDS011;1717;50.240;8.406;2023-12-20T15:16:49;6.43;;;2.27;;
3407;SDS011;1717;50.240;8.406;2023-12-20T15:19:16;5.27;;;2.03;;